sensor_id;sensor_type;location;lat;lon;timestamp;temperature;humidity
7388;DHT22;3735;50.136;11.062;2022-10-31T00:00:46;8.30;99.90
7388;DHT22;3735;50.136;11.062;2022-10-31T00:03:13;8.30;99.90
7388;DHT22;3735;50.136;11.062;2022-10-31T00:05:49;8.30;99.90
7388;DHT22;3735;50.136;11.062;2022-10-31T00:08:16;8.30;99.90
7388;DHT22;3735;50.136;11.062;2022-10-31T00:10:43;8.30;99.90
7388;DHT22;3735;50.136;11.062;2022-10-31T00:13:12;8.20;99.90
7388;DHT22;3735;50.136;11.062;2022-10-31T00:15:39;8.20;99.90
7388;DHT22;3735;50.136;11.062;2022-10-31T00:18:07;8.20;99.90
7388;DHT22;3735;50.136;11.062;2022-10-31T00:20:34;8.10;99.90
7388;DHT22;3735;50.136;11.062;2022-10-31T00:23:03;8.10;99.90
7388;DHT22;3735;50.136;11.062;2022-10-31T00:25:35;8.10;99.90
7388;DHT22;3735;50.136;11.062;2022-10-31T00:28:04;8.10;99.90
7388;DHT22;3735;50.136;11.062;2022-10-31T00:30:31;8.00;99.90
7388;DHT22;3735;50.136;11.062;2022-10-31T00:32:57;8.00;99.90
7388;DHT22;3735;50.136;11.062;2022-10-31T00:35:23;8.00;99.90
7388;DHT22;3735;50.136;11.062;2022-10-31T00:37:49;8.00;99.90
7388;DHT22;3735;50.136;11.062;2022-10-31T00:40:15;7.90;99.90
7388;DHT22;3735;50.136;11.062;2022-10-31T00:42:41;7.80;99.90
7388;DHT22;3735;50.136;11.062;2022-10-31T00:45:08;7.80;99.90
7388;DHT22;3735;50.136;11.062;2022-10-31T00:47:35;7.80;99.90
7388;DHT22;3735;50.136;11.062;2022-10-31T00:50:01;7.70;99.90
7388;DHT22;3735;50.136;11.062;2022-10-31T00:52:27;7.70;99.90
7388;DHT22;3735;50.136;11.062;2022-10-31T00:54:53;7.60;99.90
7388;DHT22;3735;50.136;11.062;2022-10-31T00:57:18;7.60;99.90
7388;DHT22;3735;50.136;11.062;2022-10-31T00:59:44;7.60;99.90
7388;DHT22;3735;50.136;11.062;2022-10-31T01:02:10;7.60;99.90
7388;DHT22;3735;50.136;11.062;2022-10-31T01:04:35;7.70;99.90
7388;DHT22;3735;50.136;11.062;2022-10-31T01:07:01;7.70;99.90
7388;DHT22;3735;50.136;11.062;2022-10-31T01:09:27;7.70;99.90
7388;DHT22;3735;50.136;11.062;2022-10-31T01:11:53;7.80;99.90
7388;DHT22;3735;50.136;11.062;2022-10-31T01:14:18;7.90;99.90
7388;DHT22;3735;50.136;11.062;2022-10-31T01:16:44;7.90;99.90
7388;DHT22;3735;50.136;11.062;2022-10-31T01:19:10;7.90;99.90
7388;DHT22;3735;50.136;11.062;2022-10-31T01:21:35;7.90;99.90
7388;DHT22;3735;50.136;11.062;2022-10-31T01:24:01;7.90;99.90
7388;DHT22;3735;50.136;11.062;2022-10-31T01:26:30;7.90;99.90
7388;DHT22;3735;50.136;11.062;2022-10-31T01:29:04;7.90;99.90
7388;DHT22;3735;50.136;11.062;2022-10-31T01:31:38;7.80;99.90
7388;DHT22;3735;50.136;11.062;2022-10-31T01:34:04;7.80;99.90
7388;DHT22;3735;50.136;11.062;2022-10-31T01:36:34;7.80;99.90
7388;DHT22;3735;50.136;11.062;2022-10-31T01:39:14;7.80;99.90
7388;DHT22;3735;50.136;11.062;2022-10-31T01:41:46;7.90;99.90
7388;DHT22;3735;50.136;11.062;2022-10-31T01:49:21;7.80;99.90
7388;DHT22;3735;50.136;11.062;2022-10-31T01:52:09;7.70;99.90
7388;DHT22;3735;50.136;11.062;2022-10-31T01:54:41;7.70;99.90
7388;DHT22;3735;50.136;11.062;2022-10-31T01:57:13;7.80;99.90
7388;DHT22;3735;50.136;11.062;2022-10-31T01:59:44;7.80;99.90
7388;DHT22;3735;50.136;11.062;2022-10-31T02:02:13;7.90;99.90
7388;DHT22;3735;50.136;11.062;2022-10-31T02:04:41;7.90;99.90
7388;DHT22;3735;50.136;11.062;2022-10-31T02:07:12;7.90;99.90
7388;DHT22;3735;50.136;11.062;2022-10-31T02:09:41;7.90;99.90
7388;DHT22;3735;50.136;11.062;2022-10-31T02:12:10;7.90;99.90
7388;DHT22;3735;50.136;11.062;2022-10-31T02:14:37;7.90;99.90
7388;DHT22;3735;50.136;11.062;2022-10-31T02:17:04;7.90;99.90
7388;DHT22;3735;50.136;11.062;2022-10-31T02:20:35;7.90;99.90
7388;DHT22;3735;50.136;11.062;2022-10-31T02:29:11;7.70;99.90
7388;DHT22;3735;50.136;11.062;2022-10-31T02:40:39;7.50;99.90
7388;DHT22;3735;50.136;11.062;2022-10-31T02:43:13;7.60;99.90
7388;DHT22;3735;50.136;11.062;2022-10-31T02:45:59;7.70;99.90
7388;DHT22;3735;50.136;11.062;2022-10-31T02:48:35;7.90;99.90
7388;DHT22;3735;50.136;11.062;2022-10-31T02:51:05;8.00;99.90
7388;DHT22;3735;50.136;11.062;2022-10-31T02:53:36;8.10;99.90
7388;DHT22;3735;50.136;11.062;2022-10-31T02:56:06;8.10;99.90
7388;DHT22;3735;50.136;11.062;2022-10-31T02:58:40;8.20;99.90
7388;DHT22;3735;50.136;11.062;2022-10-31T03:15:36;8.50;99.90
7388;DHT22;3735;50.136;11.062;2022-10-31T03:18:17;8.60;99.90
7388;DHT22;3735;50.136;11.062;2022-10-31T03:20:55;8.60;99.90
7388;DHT22;3735;50.136;11.062;2022-10-31T03:23:30;8.70;99.90
7388;DHT22;3735;50.136;11.062;2022-10-31T03:26:00;8.70;99.90
7388;DHT22;3735;50.136;11.062;2022-10-31T03:28:35;8.70;99.90
7388;DHT22;3735;50.136;11.062;2022-10-31T03:31:04;8.70;99.90
7388;DHT22;3735;50.136;11.062;2022-10-31T03:33:35;8.70;99.90
7388;DHT22;3735;50.136;11.062;2022-10-31T03:36:05;8.70;99.90
7388;DHT22;3735;50.136;11.062;2022-10-31T03:38:34;8.70;99.90
7388;DHT22;3735;50.136;11.062;2022-10-31T03:41:03;8.60;99.90
7388;DHT22;3735;50.136;11.062;2022-10-31T03:43:38;8.60;99.90
7388;DHT22;3735;50.136;11.062;2022-10-31T03:46:09;8.50;99.90
7388;DHT22;3735;50.136;11.062;2022-10-31T03:48:35;8.50;99.90
7388;DHT22;3735;50.136;11.062;2022-10-31T03:51:37;8.40;99.90
7388;DHT22;3735;50.136;11.062;2022-10-31T03:54:25;8.30;99.90
7388;DHT22;3735;50.136;11.062;2022-10-31T03:57:00;8.20;99.90
7388;DHT22;3735;50.136;11.062;2022-10-31T03:59:58;8.10;99.90
7388;DHT22;3735;50.136;11.062;2022-10-31T04:02:32;8.00;99.90
7388;DHT22;3735;50.136;11.062;2022-10-31T04:05:00;7.90;99.90
7388;DHT22;3735;50.136;11.062;2022-10-31T04:07:30;7.80;99.90
7388;DHT22;3735;50.136;11.062;2022-10-31T04:10:04;7.70;99.90
7388;DHT22;3735;50.136;11.062;2022-10-31T04:12:34;7.60;99.90
7388;DHT22;3735;50.136;11.062;2022-10-31T04:15:03;7.60;99.90
7388;DHT22;3735;50.136;11.062;2022-10-31T04:17:35;7.60;99.90
7388;DHT22;3735;50.136;11.062;2022-10-31T04:20:04;7.60;99.90
7388;DHT22;3735;50.136;11.062;2022-10-31T04:22:31;7.80;99.90
7388;DHT22;3735;50.136;11.062;2022-10-31T04:24:57;7.80;99.90
7388;DHT22;3735;50.136;11.062;2022-10-31T04:27:22;8.00;99.90
7388;DHT22;3735;50.136;11.062;2022-10-31T04:29:48;8.10;99.90
7388;DHT22;3735;50.136;11.062;2022-10-31T04:32:14;8.20;99.90
7388;DHT22;3735;50.136;11.062;2022-10-31T04:34:39;8.20;99.90
7388;DHT22;3735;50.136;11.062;2022-10-31T04:37:05;8.30;99.90
7388;DHT22;3735;50.136;11.062;2022-10-31T04:39:31;8.40;99.90
7388;DHT22;3735;50.136;11.062;2022-10-31T04:41:57;8.40;99.90
7388;DHT22;3735;50.136;11.062;2022-10-31T04:44:22;8.50;99.90
7388;DHT22;3735;50.136;11.062;2022-10-31T04:46:49;8.50;99.90
7388;DHT22;3735;50.136;11.062;2022-10-31T04:49:14;8.50;99.90
7388;DHT22;3735;50.136;11.062;2022-10-31T04:51:40;8.60;99.90
7388;DHT22;3735;50.136;11.062;2022-10-31T04:54:06;8.60;99.90
7388;DHT22;3735;50.136;11.062;2022-10-31T04:56:32;8.60;99.90
7388;DHT22;3735;50.136;11.062;2022-10-31T04:58:57;8.60;99.90
7388;DHT22;3735;50.136;11.062;2022-10-31T05:01:23;8.50;99.90
7388;DHT22;3735;50.136;11.062;2022-10-31T05:03:49;8.50;99.90
7388;DHT22;3735;50.136;11.062;2022-10-31T05:06:15;8.60;99.90
7388;DHT22;3735;50.136;11.062;2022-10-31T05:08:42;8.50;99.90
7388;DHT22;3735;50.136;11.062;2022-10-31T05:11:07;8.50;99.90
7388;DHT22;3735;50.136;11.062;2022-10-31T05:13:33;8.50;99.90
7388;DHT22;3735;50.136;11.062;2022-10-31T05:15:59;8.50;99.90
7388;DHT22;3735;50.136;11.062;2022-10-31T05:18:25;8.60;99.90
7388;DHT22;3735;50.136;11.062;2022-10-31T05:20:50;8.60;99.90
7388;DHT22;3735;50.136;11.062;2022-10-31T05:23:16;8.60;99.90
7388;DHT22;3735;50.136;11.062;2022-10-31T05:25:42;8.60;99.90
7388;DHT22;3735;50.136;11.062;2022-10-31T05:28:08;8.60;99.90
7388;DHT22;3735;50.136;11.062;2022-10-31T05:30:36;8.60;99.90
7388;DHT22;3735;50.136;11.062;2022-10-31T05:33:02;8.50;99.90
7388;DHT22;3735;50.136;11.062;2022-10-31T05:35:31;8.40;99.90
7388;DHT22;3735;50.136;11.062;2022-10-31T05:37:58;8.40;99.90
7388;DHT22;3735;50.136;11.062;2022-10-31T05:40:25;8.40;99.90
7388;DHT22;3735;50.136;11.062;2022-10-31T05:42:54;8.40;99.90
7388;DHT22;3735;50.136;11.062;2022-10-31T05:45:21;8.30;99.90
7388;DHT22;3735;50.136;11.062;2022-10-31T05:47:58;8.30;99.90
7388;DHT22;3735;50.136;11.062;2022-10-31T05:50:27;8.20;99.90
7388;DHT22;3735;50.136;11.062;2022-10-31T05:55:26;8.00;99.90
7388;DHT22;3735;50.136;11.062;2022-10-31T05:57:53;7.90;99.90
7388;DHT22;3735;50.136;11.062;2022-10-31T06:00:20;7.90;99.90
7388;DHT22;3735;50.136;11.062;2022-10-31T06:02:48;7.90;99.90
7388;DHT22;3735;50.136;11.062;2022-10-31T06:05:14;7.80;99.90
7388;DHT22;3735;50.136;11.062;2022-10-31T06:07:41;7.80;99.90
7388;DHT22;3735;50.136;11.062;2022-10-31T06:10:08;7.70;99.90
7388;DHT22;3735;50.136;11.062;2022-10-31T06:12:35;7.70;99.90
7388;DHT22;3735;50.136;11.062;2022-10-31T06:15:07;7.60;99.90
7388;DHT22;3735;50.136;11.062;2022-10-31T06:17:34;7.50;99.90
7388;DHT22;3735;50.136;11.062;2022-10-31T06:20:00;7.50;99.90
7388;DHT22;3735;50.136;11.062;2022-10-31T06:22:27;7.60;99.90
7388;DHT22;3735;50.136;11.062;2022-10-31T06:24:53;7.60;99.90
7388;DHT22;3735;50.136;11.062;2022-10-31T06:27:19;7.60;99.90
7388;DHT22;3735;50.136;11.062;2022-10-31T06:29:45;7.70;99.90
7388;DHT22;3735;50.136;11.062;2022-10-31T06:32:11;7.70;99.90
7388;DHT22;3735;50.136;11.062;2022-10-31T06:34:39;7.70;99.90
7388;DHT22;3735;50.136;11.062;2022-10-31T06:37:06;7.80;99.90
7388;DHT22;3735;50.136;11.062;2022-10-31T06:39:36;7.80;99.90
7388;DHT22;3735;50.136;11.062;2022-10-31T06:42:02;7.90;99.90
7388;DHT22;3735;50.136;11.062;2022-10-31T06:44:30;8.00;99.90
7388;DHT22;3735;50.136;11.062;2022-10-31T06:46:56;8.20;99.90
7388;DHT22;3735;50.136;11.062;2022-10-31T06:49:22;8.30;99.90
7388;DHT22;3735;50.136;11.062;2022-10-31T06:51:49;8.30;99.90
7388;DHT22;3735;50.136;11.062;2022-10-31T06:54:15;8.40;99.90
7388;DHT22;3735;50.136;11.062;2022-10-31T06:56:41;8.50;99.90
7388;DHT22;3735;50.136;11.062;2022-10-31T06:59:08;8.50;99.90
7388;DHT22;3735;50.136;11.062;2022-10-31T07:01:33;8.60;99.90
7388;DHT22;3735;50.136;11.062;2022-10-31T07:03:59;8.60;99.90
7388;DHT22;3735;50.136;11.062;2022-10-31T07:06:25;8.70;99.90
7388;DHT22;3735;50.136;11.062;2022-10-31T07:08:51;8.70;99.90
7388;DHT22;3735;50.136;11.062;2022-10-31T07:11:16;8.80;99.90
7388;DHT22;3735;50.136;11.062;2022-10-31T07:13:42;8.90;99.90
7388;DHT22;3735;50.136;11.062;2022-10-31T07:16:08;9.10;99.90
7388;DHT22;3735;50.136;11.062;2022-10-31T07:18:37;9.30;99.90
7388;DHT22;3735;50.136;11.062;2022-10-31T07:21:03;9.40;99.90
7388;DHT22;3735;50.136;11.062;2022-10-31T07:23:29;9.40;99.90
7388;DHT22;3735;50.136;11.062;2022-10-31T07:25:56;9.50;99.90
7388;DHT22;3735;50.136;11.062;2022-10-31T07:28:24;9.60;99.90
7388;DHT22;3735;50.136;11.062;2022-10-31T07:30:52;9.80;99.90
7388;DHT22;3735;50.136;11.062;2022-10-31T07:33:22;10.00;99.90
7388;DHT22;3735;50.136;11.062;2022-10-31T07:35:51;10.00;99.90
7388;DHT22;3735;50.136;11.062;2022-10-31T07:38:17;10.00;99.90
7388;DHT22;3735;50.136;11.062;2022-10-31T07:40:43;10.10;99.90
7388;DHT22;3735;50.136;11.062;2022-10-31T07:43:11;10.10;99.90
7388;DHT22;3735;50.136;11.062;2022-10-31T07:45:37;10.10;99.90
7388;DHT22;3735;50.136;11.062;2022-10-31T07:48:03;10.10;99.90
7388;DHT22;3735;50.136;11.062;2022-10-31T07:50:31;10.10;99.90
7388;DHT22;3735;50.136;11.062;2022-10-31T07:53:04;10.10;99.90
7388;DHT22;3735;50.136;11.062;2022-10-31T07:55:31;10.10;99.90
7388;DHT22;3735;50.136;11.062;2022-10-31T07:57:59;10.10;99.90
7388;DHT22;3735;50.136;11.062;2022-10-31T08:00:28;10.10;99.90
7388;DHT22;3735;50.136;11.062;2022-10-31T08:03:05;10.10;99.90
7388;DHT22;3735;50.136;11.062;2022-10-31T08:05:33;10.10;99.90
7388;DHT22;3735;50.136;11.062;2022-10-31T08:07:59;10.30;99.90
7388;DHT22;3735;50.136;11.062;2022-10-31T08:10:26;10.60;99.90
7388;DHT22;3735;50.136;11.062;2022-10-31T08:13:01;10.70;99.90
7388;DHT22;3735;50.136;11.062;2022-10-31T08:15:29;10.90;99.90
7388;DHT22;3735;50.136;11.062;2022-10-31T08:17:56;11.20;99.90
7388;DHT22;3735;50.136;11.062;2022-10-31T08:20:22;11.50;99.90
7388;DHT22;3735;50.136;11.062;2022-10-31T08:25:25;12.30;99.90
7388;DHT22;3735;50.136;11.062;2022-10-31T08:27:54;12.60;99.90
7388;DHT22;3735;50.136;11.062;2022-10-31T08:30:22;13.10;99.90
7388;DHT22;3735;50.136;11.062;2022-10-31T08:35:34;13.60;99.90
7388;DHT22;3735;50.136;11.062;2022-10-31T08:38:00;13.80;99.90
7388;DHT22;3735;50.136;11.062;2022-10-31T08:40:28;14.10;99.90
7388;DHT22;3735;50.136;11.062;2022-10-31T08:43:04;14.30;99.90
7388;DHT22;3735;50.136;11.062;2022-10-31T08:45:32;14.40;99.90
7388;DHT22;3735;50.136;11.062;2022-10-31T08:48:01;14.50;99.90
7388;DHT22;3735;50.136;11.062;2022-10-31T08:50:30;14.60;99.90
7388;DHT22;3735;50.136;11.062;2022-10-31T08:53:09;14.80;99.90
7388;DHT22;3735;50.136;11.062;2022-10-31T08:55:38;14.90;99.90
7388;DHT22;3735;50.136;11.062;2022-10-31T08:58:07;15.00;99.90
7388;DHT22;3735;50.136;11.062;2022-10-31T09:00:37;15.10;99.90
7388;DHT22;3735;50.136;11.062;2022-10-31T09:03:11;15.30;99.90
7388;DHT22;3735;50.136;11.062;2022-10-31T09:05:39;15.70;99.90
7388;DHT22;3735;50.136;11.062;2022-10-31T09:08:07;16.00;99.90
7388;DHT22;3735;50.136;11.062;2022-10-31T09:10:35;16.70;99.90
7388;DHT22;3735;50.136;11.062;2022-10-31T09:13:09;17.50;99.90
7388;DHT22;3735;50.136;11.062;2022-10-31T09:15:39;18.90;99.90
7388;DHT22;3735;50.136;11.062;2022-10-31T09:18:07;20.80;99.90
7388;DHT22;3735;50.136;11.062;2022-10-31T09:20:35;22.40;99.90
7388;DHT22;3735;50.136;11.062;2022-10-31T09:23:13;23.30;99.90
7388;DHT22;3735;50.136;11.062;2022-10-31T09:25:47;24.20;99.90
7388;DHT22;3735;50.136;11.062;2022-10-31T09:28:17;24.10;99.90
7388;DHT22;3735;50.136;11.062;2022-10-31T09:30:50;24.10;99.90
7388;DHT22;3735;50.136;11.062;2022-10-31T09:33:17;24.20;99.90
7388;DHT22;3735;50.136;11.062;2022-10-31T09:35:43;24.80;99.90
7388;DHT22;3735;50.136;11.062;2022-10-31T09:38:14;25.50;99.90
7388;DHT22;3735;50.136;11.062;2022-10-31T09:40:43;25.90;99.90
7388;DHT22;3735;50.136;11.062;2022-10-31T09:43:39;26.20;99.90
7388;DHT22;3735;50.136;11.062;2022-10-31T09:55:16;27.60;99.90
7388;DHT22;3735;50.136;11.062;2022-10-31T09:57:46;27.80;99.90
7388;DHT22;3735;50.136;11.062;2022-10-31T10:00:19;28.10;99.90
7388;DHT22;3735;50.136;11.062;2022-10-31T10:09:03;27.80;99.90
7388;DHT22;3735;50.136;11.062;2022-10-31T10:11:47;27.80;99.90
7388;DHT22;3735;50.136;11.062;2022-10-31T10:17:40;26.80;99.90
7388;DHT22;3735;50.136;11.062;2022-10-31T10:20:18;26.70;99.90
7388;DHT22;3735;50.136;11.062;2022-10-31T10:26:05;26.80;99.90
7388;DHT22;3735;50.136;11.062;2022-10-31T10:28:43;27.00;99.90
7388;DHT22;3735;50.136;11.062;2022-10-31T10:31:15;27.60;99.90
7388;DHT22;3735;50.136;11.062;2022-10-31T10:36:50;27.90;99.90
7388;DHT22;3735;50.136;11.062;2022-10-31T10:39:35;27.70;99.90
7388;DHT22;3735;50.136;11.062;2022-10-31T10:42:12;27.40;99.90
7388;DHT22;3735;50.136;11.062;2022-10-31T10:44:58;27.10;99.90
7388;DHT22;3735;50.136;11.062;2022-10-31T10:47:50;26.80;99.90
7388;DHT22;3735;50.136;11.062;2022-10-31T10:50:34;26.90;99.90
7388;DHT22;3735;50.136;11.062;2022-10-31T10:56:40;26.60;99.90
7388;DHT22;3735;50.136;11.062;2022-10-31T10:59:12;26.80;99.90
7388;DHT22;3735;50.136;11.062;2022-10-31T11:01:41;27.20;99.90
7388;DHT22;3735;50.136;11.062;2022-10-31T11:04:29;27.40;99.90
7388;DHT22;3735;50.136;11.062;2022-10-31T11:07:10;27.60;99.90
7388;DHT22;3735;50.136;11.062;2022-10-31T11:09:37;27.80;99.90
7388;DHT22;3735;50.136;11.062;2022-10-31T11:12:22;27.90;99.90
7388;DHT22;3735;50.136;11.062;2022-10-31T11:14:59;27.80;99.90
7388;DHT22;3735;50.136;11.062;2022-10-31T11:17:38;28.10;99.90
7388;DHT22;3735;50.136;11.062;2022-10-31T11:22:48;27.60;99.90
7388;DHT22;3735;50.136;11.062;2022-10-31T11:25:24;27.10;99.90
7388;DHT22;3735;50.136;11.062;2022-10-31T11:28:07;26.90;99.90
7388;DHT22;3735;50.136;11.062;2022-10-31T11:30:55;26.80;99.90
7388;DHT22;3735;50.136;11.062;2022-10-31T11:33:37;26.50;99.90
7388;DHT22;3735;50.136;11.062;2022-10-31T11:36:16;26.20;99.90
7388;DHT22;3735;50.136;11.062;2022-10-31T11:38:46;26.10;99.90
7388;DHT22;3735;50.136;11.062;2022-10-31T11:41:20;26.00;99.90
7388;DHT22;3735;50.136;11.062;2022-10-31T11:44:02;25.70;99.90
7388;DHT22;3735;50.136;11.062;2022-10-31T11:46:32;25.50;99.90
7388;DHT22;3735;50.136;11.062;2022-10-31T11:49:04;25.20;99.90
7388;DHT22;3735;50.136;11.062;2022-10-31T11:51:36;24.90;99.90
7388;DHT22;3735;50.136;11.062;2022-10-31T11:54:03;24.80;99.90
7388;DHT22;3735;50.136;11.062;2022-10-31T11:56:41;24.80;99.90
7388;DHT22;3735;50.136;11.062;2022-10-31T11:59:18;24.60;99.90
7388;DHT22;3735;50.136;11.062;2022-10-31T12:01:53;24.40;99.90
7388;DHT22;3735;50.136;11.062;2022-10-31T12:04:32;24.30;99.90
7388;DHT22;3735;50.136;11.062;2022-10-31T12:07:06;24.00;99.90
7388;DHT22;3735;50.136;11.062;2022-10-31T12:09:36;23.90;99.90
7388;DHT22;3735;50.136;11.062;2022-10-31T12:15:33;23.90;99.90
7388;DHT22;3735;50.136;11.062;2022-10-31T12:18:24;23.90;99.90
7388;DHT22;3735;50.136;11.062;2022-10-31T12:32:09;23.90;99.90
7388;DHT22;3735;50.136;11.062;2022-10-31T12:34:45;23.90;99.90
7388;DHT22;3735;50.136;11.062;2022-10-31T12:40:46;23.80;99.90
7388;DHT22;3735;50.136;11.062;2022-10-31T12:55:06;23.20;99.90
7388;DHT22;3735;50.136;11.062;2022-10-31T12:58:39;23.10;99.90
7388;DHT22;3735;50.136;11.062;2022-10-31T13:00:43;23.00;99.90
7388;DHT22;3735;50.136;11.062;2022-10-31T13:06:20;22.70;99.90
7388;DHT22;3735;50.136;11.062;2022-10-31T13:08:56;22.60;99.90
7388;DHT22;3735;50.136;11.062;2022-10-31T13:11:29;22.50;99.90
7388;DHT22;3735;50.136;11.062;2022-10-31T13:14:29;22.40;99.90
7388;DHT22;3735;50.136;11.062;2022-10-31T13:17:00;22.30;99.90
7388;DHT22;3735;50.136;11.062;2022-10-31T13:19:38;22.00;99.90
7388;DHT22;3735;50.136;11.062;2022-10-31T13:22:24;21.80;99.90
7388;DHT22;3735;50.136;11.062;2022-10-31T13:27:46;21.60;99.90
7388;DHT22;3735;50.136;11.062;2022-10-31T13:30:20;21.50;99.90
7388;DHT22;3735;50.136;11.062;2022-10-31T13:33:11;21.50;99.90
7388;DHT22;3735;50.136;11.062;2022-10-31T13:39:30;21.50;99.90
7388;DHT22;3735;50.136;11.062;2022-10-31T13:42:24;21.40;99.90
7388;DHT22;3735;50.136;11.062;2022-10-31T13:45:16;21.40;99.90
7388;DHT22;3735;50.136;11.062;2022-10-31T13:48:39;21.30;99.90
7388;DHT22;3735;50.136;11.062;2022-10-31T13:51:09;21.10;99.90
7388;DHT22;3735;50.136;11.062;2022-10-31T13:56:34;20.70;99.90
7388;DHT22;3735;50.136;11.062;2022-10-31T14:01:36;20.40;99.90
7388;DHT22;3735;50.136;11.062;2022-10-31T14:04:20;20.30;99.90
7388;DHT22;3735;50.136;11.062;2022-10-31T14:07:12;20.10;99.90
7388;DHT22;3735;50.136;11.062;2022-10-31T14:12:44;19.80;99.90
7388;DHT22;3735;50.136;11.062;2022-10-31T14:15:26;19.60;99.90
7388;DHT22;3735;50.136;11.062;2022-10-31T14:18:00;19.50;99.90
7388;DHT22;3735;50.136;11.062;2022-10-31T14:20:42;19.40;99.90
7388;DHT22;3735;50.136;11.062;2022-10-31T14:28:56;19.10;99.90
7388;DHT22;3735;50.136;11.062;2022-10-31T14:31:38;19.00;99.90
7388;DHT22;3735;50.136;11.062;2022-10-31T14:40:52;18.70;99.90
7388;DHT22;3735;50.136;11.062;2022-10-31T14:52:48;18.20;99.90
7388;DHT22;3735;50.136;11.062;2022-10-31T14:55:17;18.00;99.90
7388;DHT22;3735;50.136;11.062;2022-10-31T14:57:54;17.90;99.90
7388;DHT22;3735;50.136;11.062;2022-10-31T15:00:26;17.80;99.90
7388;DHT22;3735;50.136;11.062;2022-10-31T15:05:32;17.50;99.90
7388;DHT22;3735;50.136;11.062;2022-10-31T15:08:00;17.40;99.90
7388;DHT22;3735;50.136;11.062;2022-10-31T15:10:31;17.20;99.90
7388;DHT22;3735;50.136;11.062;2022-10-31T15:13:28;17.00;99.90
7388;DHT22;3735;50.136;11.062;2022-10-31T15:15:55;16.80;99.90
7388;DHT22;3735;50.136;11.062;2022-10-31T15:18:26;16.70;99.90
7388;DHT22;3735;50.136;11.062;2022-10-31T15:20:55;16.50;99.90
7388;DHT22;3735;50.136;11.062;2022-10-31T15:23:27;16.40;99.90
7388;DHT22;3735;50.136;11.062;2022-10-31T15:26:03;16.20;99.90
7388;DHT22;3735;50.136;11.062;2022-10-31T15:28:30;16.10;99.90
7388;DHT22;3735;50.136;11.062;2022-10-31T15:31:01;16.00;99.90
7388;DHT22;3735;50.136;11.062;2022-10-31T15:33:30;15.80;99.90
7388;DHT22;3735;50.136;11.062;2022-10-31T15:35:59;15.80;99.90
7388;DHT22;3735;50.136;11.062;2022-10-31T15:38:27;15.70;99.90
7388;DHT22;3735;50.136;11.062;2022-10-31T15:40:58;15.50;99.90
7388;DHT22;3735;50.136;11.062;2022-10-31T15:43:25;15.40;99.90
7388;DHT22;3735;50.136;11.062;2022-10-31T15:45:59;15.30;99.90
7388;DHT22;3735;50.136;11.062;2022-10-31T15:48:27;15.20;99.90
7388;DHT22;3735;50.136;11.062;2022-10-31T15:50:55;15.10;99.90
7388;DHT22;3735;50.136;11.062;2022-10-31T15:53:27;15.00;99.90
7388;DHT22;3735;50.136;11.062;2022-10-31T15:56:12;15.00;99.90
7388;DHT22;3735;50.136;11.062;2022-10-31T15:58:48;14.90;99.90
7388;DHT22;3735;50.136;11.062;2022-10-31T16:01:42;14.90;99.90
7388;DHT22;3735;50.136;11.062;2022-10-31T16:06:35;14.70;99.90
7388;DHT22;3735;50.136;11.062;2022-10-31T16:09:03;14.60;99.90
7388;DHT22;3735;50.136;11.062;2022-10-31T16:11:45;14.60;99.90
7388;DHT22;3735;50.136;11.062;2022-10-31T16:16:50;14.40;99.90
7388;DHT22;3735;50.136;11.062;2022-10-31T16:19:32;14.40;99.90
7388;DHT22;3735;50.136;11.062;2022-10-31T16:22:09;14.30;99.90
7388;DHT22;3735;50.136;11.062;2022-10-31T16:24:46;14.20;99.90
7388;DHT22;3735;50.136;11.062;2022-10-31T16:27:25;14.10;99.90
7388;DHT22;3735;50.136;11.062;2022-10-31T16:29:58;14.10;99.90
7388;DHT22;3735;50.136;11.062;2022-10-31T16:32:33;14.00;99.90
7388;DHT22;3735;50.136;11.062;2022-10-31T16:37:33;13.80;99.90
7388;DHT22;3735;50.136;11.062;2022-10-31T16:39:59;13.70;99.90
7388;DHT22;3735;50.136;11.062;2022-10-31T16:42:26;13.60;99.90
7388;DHT22;3735;50.136;11.062;2022-10-31T16:44:52;13.50;99.90
7388;DHT22;3735;50.136;11.062;2022-10-31T16:47:18;13.40;99.90
7388;DHT22;3735;50.136;11.062;2022-10-31T16:49:47;13.40;99.90
7388;DHT22;3735;50.136;11.062;2022-10-31T16:52:16;13.30;99.90
7388;DHT22;3735;50.136;11.062;2022-10-31T16:54:42;13.30;99.90
7388;DHT22;3735;50.136;11.062;2022-10-31T16:57:15;13.30;99.90
7388;DHT22;3735;50.136;11.062;2022-10-31T16:59:52;13.30;99.90
7388;DHT22;3735;50.136;11.062;2022-10-31T17:02:21;13.20;99.90
7388;DHT22;3735;50.136;11.062;2022-10-31T17:04:47;13.20;99.90
7388;DHT22;3735;50.136;11.062;2022-10-31T17:07:13;13.20;99.90
7388;DHT22;3735;50.136;11.062;2022-10-31T17:09:39;13.20;99.90
7388;DHT22;3735;50.136;11.062;2022-10-31T17:12:06;13.20;99.90
7388;DHT22;3735;50.136;11.062;2022-10-31T17:14:43;13.10;99.90
7388;DHT22;3735;50.136;11.062;2022-10-31T17:17:12;13.00;99.90
7388;DHT22;3735;50.136;11.062;2022-10-31T17:19:38;13.10;99.90
7388;DHT22;3735;50.136;11.062;2022-10-31T17:22:03;13.00;99.90
7388;DHT22;3735;50.136;11.062;2022-10-31T17:24:29;13.00;99.90
7388;DHT22;3735;50.136;11.062;2022-10-31T17:26:55;13.00;99.90
7388;DHT22;3735;50.136;11.062;2022-10-31T17:29:21;13.00;99.90
7388;DHT22;3735;50.136;11.062;2022-10-31T17:31:46;13.00;99.90
7388;DHT22;3735;50.136;11.062;2022-10-31T17:34:13;12.90;99.90
7388;DHT22;3735;50.136;11.062;2022-10-31T17:36:39;12.90;99.90
7388;DHT22;3735;50.136;11.062;2022-10-31T17:39:05;12.80;99.90
7388;DHT22;3735;50.136;11.062;2022-10-31T17:41:33;12.80;99.90
7388;DHT22;3735;50.136;11.062;2022-10-31T17:43:59;12.70;99.90
7388;DHT22;3735;50.136;11.062;2022-10-31T17:46:26;12.70;99.90
7388;DHT22;3735;50.136;11.062;2022-10-31T17:48:52;12.70;99.90
7388;DHT22;3735;50.136;11.062;2022-10-31T17:51:18;12.70;99.90
7388;DHT22;3735;50.136;11.062;2022-10-31T17:53:44;12.50;99.90
7388;DHT22;3735;50.136;11.062;2022-10-31T17:56:10;12.50;99.90
7388;DHT22;3735;50.136;11.062;2022-10-31T17:58:36;12.40;99.90
7388;DHT22;3735;50.136;11.062;2022-10-31T18:01:14;12.40;99.90
7388;DHT22;3735;50.136;11.062;2022-10-31T18:03:42;12.30;99.90
7388;DHT22;3735;50.136;11.062;2022-10-31T18:06:08;12.30;99.90
7388;DHT22;3735;50.136;11.062;2022-10-31T18:08:37;12.20;99.90
7388;DHT22;3735;50.136;11.062;2022-10-31T18:11:16;12.20;99.90
7388;DHT22;3735;50.136;11.062;2022-10-31T18:13:45;12.10;99.90
7388;DHT22;3735;50.136;11.062;2022-10-31T18:16:14;12.00;99.90
7388;DHT22;3735;50.136;11.062;2022-10-31T18:18:42;12.00;99.90
7388;DHT22;3735;50.136;11.062;2022-10-31T18:21:08;11.90;99.90
7388;DHT22;3735;50.136;11.062;2022-10-31T18:23:33;11.80;99.90
7388;DHT22;3735;50.136;11.062;2022-10-31T18:25:59;11.70;99.90
7388;DHT22;3735;50.136;11.062;2022-10-31T18:28:25;11.60;99.90
7388;DHT22;3735;50.136;11.062;2022-10-31T18:30:50;11.60;99.90
7388;DHT22;3735;50.136;11.062;2022-10-31T18:33:16;11.50;99.90
7388;DHT22;3735;50.136;11.062;2022-10-31T18:35:42;11.50;99.90
7388;DHT22;3735;50.136;11.062;2022-10-31T18:38:08;11.40;99.90
7388;DHT22;3735;50.136;11.062;2022-10-31T18:40:34;11.30;99.90
7388;DHT22;3735;50.136;11.062;2022-10-31T18:43:01;11.20;99.90
7388;DHT22;3735;50.136;11.062;2022-10-31T18:45:27;11.20;99.90
7388;DHT22;3735;50.136;11.062;2022-10-31T18:47:53;11.20;99.90
7388;DHT22;3735;50.136;11.062;2022-10-31T18:50:19;11.20;99.90